createdAt,value
2023-06-30T00:00:23.805Z,36.74
2023-06-30T00:01:23.947Z,36.58
2023-06-30T00:02:23.881Z,47.70
2023-06-30T00:03:23.816Z,42.70
2023-06-30T00:04:23.942Z,54.14
2023-06-30T00:05:23.774Z,38.67
2023-06-30T00:06:23.752Z,37.22
2023-06-30T00:07:23.828Z,36.09
2023-06-30T00:08:23.746Z,35.61
2023-06-30T00:09:23.734Z,35.29
2023-06-30T00:10:23.736Z,35.45
2023-06-30T00:11:23.714Z,37.54
2023-06-30T00:12:23.731Z,36.90
2023-06-30T00:13:23.692Z,47.70
2023-06-30T00:14:23.694Z,38.51
2023-06-30T00:15:23.686Z,38.51
2023-06-30T00:16:23.819Z,42.54
2023-06-30T00:17:23.904Z,49.47
2023-06-30T00:18:23.656Z,36.58
2023-06-30T00:21:13.188Z,40.77
2023-06-30T00:22:13.187Z,40.44
2023-06-30T00:23:13.172Z,37.38
2023-06-30T00:24:13.171Z,38.83
2023-06-30T00:25:15.187Z,48.34
2023-06-30T00:26:13.156Z,38.35
2023-06-30T00:27:13.162Z,36.42
2023-06-30T00:28:13.138Z,36.09
2023-06-30T00:29:13.137Z,37.54
2023-06-30T00:30:13.170Z,47.05
2023-06-30T00:31:13.181Z,36.90
2023-06-30T00:32:13.107Z,38.35
2023-06-30T00:33:14.200Z,36.58
2023-06-30T00:34:14.185Z,37.87
2023-06-30T00:35:14.168Z,54.46
2023-06-30T00:36:14.192Z,37.87
2023-06-30T00:37:14.179Z,36.74
2023-06-30T00:38:14.184Z,36.58
2023-06-30T00:39:14.163Z,43.83
2023-06-30T00:40:14.133Z,40.28
2023-06-30T00:41:14.144Z,39.64
2023-06-30T00:42:14.117Z,38.51
2023-06-30T00:43:14.116Z,39.64
2023-06-30T00:44:14.121Z,38.51
2023-06-30T00:45:14.101Z,39.96
2023-06-30T00:46:14.099Z,38.19
2023-06-30T00:47:14.143Z,41.89
2023-06-30T00:48:14.089Z,48.66
2023-06-30T00:49:14.064Z,41.41
2023-06-30T00:50:14.045Z,40.61
2023-06-30T00:51:14.058Z,37.54
2023-06-30T00:52:14.062Z,43.02
2023-06-30T00:53:14.055Z,37.71
2023-06-30T00:54:14.018Z,37.22
2023-06-30T00:55:14.021Z,50.27
2023-06-30T00:56:14.012Z,45.28
2023-06-30T00:57:14.001Z,42.22
2023-06-30T00:58:14.006Z,39.64
2023-06-30T00:59:13.983Z,39.16
2023-06-30T01:00:13.980Z,42.38
2023-06-30T01:01:13.966Z,38.19
2023-06-30T01:02:13.960Z,38.19
2023-06-30T01:03:14.152Z,37.87
2023-06-30T01:04:13.982Z,39.64
2023-06-30T01:05:13.937Z,41.57
2023-06-30T01:06:14.644Z,38.51
2023-06-30T01:07:13.973Z,37.54
2023-06-30T01:08:13.914Z,39.32
2023-06-30T01:09:13.909Z,39.32
2023-06-30T01:10:13.894Z,36.58
2023-06-30T01:11:13.874Z,40.12
2023-06-30T01:12:13.883Z,37.06
2023-06-30T01:13:13.884Z,39.64
2023-06-30T01:14:13.864Z,40.44
2023-06-30T01:15:13.845Z,45.44
2023-06-30T01:16:13.866Z,51.72
2023-06-30T01:17:13.834Z,40.77
2023-06-30T01:18:13.836Z,39.80
2023-06-30T01:19:13.828Z,40.12
2023-06-30T01:20:13.808Z,40.28
2023-06-30T01:21:13.807Z,43.02
2023-06-30T01:22:13.820Z,40.61
2023-06-30T01:23:13.792Z,39.32
2023-06-30T01:24:13.773Z,48.50
2023-06-30T01:25:13.758Z,42.38
2023-06-30T01:26:13.828Z,47.86
2023-06-30T01:27:13.769Z,37.38
2023-06-30T01:28:13.731Z,39.32
2023-06-30T01:29:14.827Z,37.71
2023-06-30T01:30:13.738Z,38.19
2023-06-30T01:31:13.785Z,41.41
2023-06-30T01:32:13.696Z,37.06
2023-06-30T01:33:13.702Z,37.87
2023-06-30T01:34:13.692Z,37.71
2023-06-30T01:35:13.684Z,39.32
2023-06-30T01:36:14.672Z,38.19
2023-06-30T01:37:13.667Z,41.73
2023-06-30T01:38:13.661Z,40.28
2023-06-30T01:39:13.639Z,38.83
2023-06-30T01:40:13.659Z,37.71
2023-06-30T01:41:14.166Z,41.25
2023-06-30T01:42:13.648Z,39.80
2023-06-30T01:43:13.665Z,37.87
2023-06-30T01:44:13.618Z,37.06
2023-06-30T01:45:13.640Z,38.03
2023-06-30T01:46:13.615Z,36.25
2023-06-30T01:47:13.590Z,35.93
2023-06-30T01:48:13.576Z,39.80
2023-06-30T01:49:13.579Z,35.45
2023-06-30T01:50:13.555Z,35.29
2023-06-30T01:51:13.559Z,37.06
2023-06-30T01:52:13.546Z,41.41
2023-06-30T01:53:13.536Z,37.54
2023-06-30T01:54:13.534Z,38.03
2023-06-30T01:55:13.520Z,37.54
2023-06-30T01:56:13.520Z,38.35
2023-06-30T01:57:14.166Z,38.03
2023-06-30T01:58:13.506Z,40.28
2023-06-30T01:59:13.492Z,40.61
2023-06-30T02:00:13.500Z,37.06
2023-06-30T02:01:13.515Z,37.22
2023-06-30T02:02:13.458Z,36.74
2023-06-30T02:03:13.600Z,37.22
2023-06-30T02:04:13.441Z,46.73
2023-06-30T02:05:13.485Z,39.32
2023-06-30T02:06:13.434Z,40.93
2023-06-30T02:07:13.455Z,37.71
2023-06-30T02:08:13.418Z,43.34
2023-06-30T02:09:13.619Z,38.67
2023-06-30T02:10:13.425Z,39.80
2023-06-30T02:11:13.395Z,39.16
2023-06-30T02:12:13.414Z,42.22
2023-06-30T02:13:13.396Z,38.83
2023-06-30T02:14:13.374Z,37.71
2023-06-30T02:15:13.367Z,38.03
2023-06-30T02:16:13.408Z,38.83
2023-06-30T02:17:13.428Z,38.03
2023-06-30T02:18:13.355Z,39.32
2023-06-30T02:19:13.333Z,39.48
2023-06-30T02:20:13.329Z,38.99
2023-06-30T02:21:13.315Z,39.48
2023-06-30T02:22:13.299Z,38.35
2023-06-30T02:23:13.306Z,39.64
2023-06-30T02:24:13.294Z,41.89
2023-06-30T02:25:13.273Z,48.34
2023-06-30T02:26:14.115Z,38.83
2023-06-30T02:27:13.267Z,40.44
2023-06-30T02:28:13.282Z,42.38
2023-06-30T02:29:13.255Z,40.77
2023-06-30T02:30:13.250Z,39.32
2023-06-30T02:31:13.273Z,38.35
2023-06-30T02:32:13.252Z,39.16
2023-06-30T02:33:13.238Z,48.02
2023-06-30T02:34:13.214Z,44.15
2023-06-30T02:35:13.263Z,38.19
2023-06-30T02:36:13.188Z,40.93
2023-06-30T02:37:13.190Z,38.67
2023-06-30T02:38:13.176Z,38.35
2023-06-30T02:39:13.186Z,53.98
2023-06-30T02:40:13.153Z,43.67
2023-06-30T02:41:13.158Z,47.37
2023-06-30T02:42:13.149Z,47.70
2023-06-30T02:43:13.142Z,38.67
2023-06-30T02:44:14.097Z,39.64
2023-06-30T02:45:13.132Z,39.80
2023-06-30T02:46:13.181Z,41.41
2023-06-30T02:47:13.099Z,41.25
2023-06-30T02:48:13.099Z,49.31
2023-06-30T02:49:13.087Z,38.19
2023-06-30T02:50:13.072Z,49.47
2023-06-30T02:51:13.075Z,45.44
2023-06-30T02:52:13.055Z,38.67
2023-06-30T02:53:13.064Z,53.82
2023-06-30T02:54:13.034Z,45.12
2023-06-30T02:55:13.044Z,53.50
2023-06-30T02:56:13.026Z,55.75
2023-06-30T02:57:13.026Z,47.21
2023-06-30T02:58:13.085Z,43.02
2023-06-30T02:59:12.994Z,41.73
2023-06-30T03:00:12.994Z,39.16
2023-06-30T03:01:13.113Z,40.77
2023-06-30T03:02:13.088Z,38.35
2023-06-30T03:03:12.998Z,39.96
2023-06-30T03:04:13.003Z,54.95
2023-06-30T03:05:12.957Z,51.72
2023-06-30T03:06:12.937Z,49.15
2023-06-30T03:07:12.995Z,48.98
2023-06-30T03:08:12.954Z,55.59
2023-06-30T03:09:12.925Z,50.11
2023-06-30T03:10:12.910Z,45.12
2023-06-30T03:11:12.906Z,56.56
2023-06-30T03:12:12.888Z,55.43
2023-06-30T03:13:12.897Z,48.98
2023-06-30T03:14:12.888Z,47.21
2023-06-30T03:15:12.883Z,47.70
2023-06-30T03:16:12.861Z,42.54
2023-06-30T03:17:12.897Z,52.69
2023-06-30T03:18:12.854Z,53.33
2023-06-30T03:19:12.831Z,52.37
2023-06-30T03:20:13.067Z,48.82
2023-06-30T03:21:12.815Z,45.92
2023-06-30T03:22:12.826Z,41.57
2023-06-30T03:23:12.802Z,49.15
2023-06-30T03:24:12.799Z,48.34
2023-06-30T03:25:12.786Z,46.08
2023-06-30T03:26:12.770Z,50.76
2023-06-30T03:27:12.781Z,54.79
2023-06-30T03:28:12.783Z,52.69
2023-06-30T03:29:12.772Z,42.06
2023-06-30T03:30:12.750Z,53.01
2023-06-30T03:31:12.780Z,46.57
2023-06-30T03:32:12.739Z,53.98
2023-06-30T03:33:12.729Z,53.50
2023-06-30T03:34:12.722Z,51.40
2023-06-30T03:35:12.711Z,53.98
2023-06-30T03:36:12.707Z,57.52
2023-06-30T03:37:12.701Z,57.69
2023-06-30T03:38:12.690Z,48.98
2023-06-30T03:39:12.680Z,46.08
2023-06-30T03:40:12.666Z,57.85
2023-06-30T03:41:12.702Z,56.88
2023-06-30T03:42:12.651Z,52.37
2023-06-30T03:43:12.645Z,52.85
2023-06-30T03:44:12.661Z,52.69
2023-06-30T03:45:12.663Z,55.27
2023-06-30T03:46:12.728Z,42.54
2023-06-30T03:47:12.607Z,47.05
2023-06-30T03:48:12.599Z,58.65
2023-06-30T03:49:13.112Z,55.59
2023-06-30T03:50:12.606Z,59.62
2023-06-30T03:51:13.585Z,58.65
2023-06-30T03:52:12.579Z,57.04
2023-06-30T03:53:12.565Z,52.53
2023-06-30T03:54:12.573Z,60.26
2023-06-30T03:55:12.543Z,46.08
2023-06-30T03:56:12.530Z,52.69
2023-06-30T03:57:12.535Z,57.36
2023-06-30T03:58:12.534Z,47.70
2023-06-30T03:59:12.545Z,60.42
2023-06-30T04:00:12.501Z,59.78
2023-06-30T04:01:13.512Z,54.62
2023-06-30T04:02:12.493Z,51.24
2023-06-30T04:03:12.599Z,52.21
2023-06-30T04:04:12.646Z,56.56
2023-06-30T04:05:12.502Z,59.78
2023-06-30T04:06:12.500Z,46.57
2023-06-30T04:07:12.563Z,59.78
2023-06-30T04:08:12.520Z,59.30
2023-06-30T04:09:12.447Z,58.49
2023-06-30T04:10:12.438Z,51.72
2023-06-30T04:11:12.419Z,59.62
2023-06-30T04:12:12.445Z,60.91
2023-06-30T04:13:12.406Z,58.81
2023-06-30T04:14:12.422Z,60.10
2023-06-30T04:15:12.395Z,53.50
2023-06-30T04:16:12.402Z,50.60
2023-06-30T04:17:12.403Z,58.33
2023-06-30T04:18:12.366Z,57.69
2023-06-30T04:19:12.705Z,63.49
2023-06-30T04:20:12.355Z,56.72
2023-06-30T04:21:12.344Z,58.65
2023-06-30T04:22:12.335Z,57.52
2023-06-30T04:23:12.330Z,54.30
2023-06-30T04:24:12.323Z,56.07
2023-06-30T04:25:12.338Z,57.36
2023-06-30T04:26:12.333Z,58.81
2023-06-30T04:27:12.341Z,55.43
2023-06-30T04:28:12.291Z,53.98
2023-06-30T04:29:13.146Z,58.65
2023-06-30T04:30:12.254Z,61.23
2023-06-30T04:31:13.161Z,59.62
2023-06-30T04:32:13.210Z,65.42
2023-06-30T04:33:12.258Z,61.87
2023-06-30T04:34:12.230Z,61.07
2023-06-30T04:35:12.235Z,59.78
2023-06-30T04:36:12.251Z,59.94
2023-06-30T04:37:12.220Z,57.04
2023-06-30T04:38:12.206Z,60.59
2023-06-30T04:39:13.155Z,63.33
2023-06-30T04:40:12.204Z,54.62
2023-06-30T04:41:12.177Z,61.07
2023-06-30T04:42:12.260Z,59.62
2023-06-30T04:43:13.145Z,56.56
2023-06-30T04:44:12.157Z,64.61
2023-06-30T04:45:12.162Z,58.33
2023-06-30T04:46:12.209Z,60.10
2023-06-30T04:47:12.148Z,62.36
2023-06-30T04:48:12.225Z,58.97
2023-06-30T04:49:12.130Z,65.74
2023-06-30T04:50:12.649Z,61.87
2023-06-30T04:51:12.101Z,61.71
2023-06-30T04:52:12.093Z,58.97
2023-06-30T04:53:12.117Z,62.84
2023-06-30T04:54:12.090Z,62.20
2023-06-30T04:55:12.069Z,62.04
2023-06-30T04:56:12.065Z,64.29
2023-06-30T04:57:12.651Z,61.07
2023-06-30T04:58:12.720Z,57.52
2023-06-30T04:59:12.032Z,59.94
2023-06-30T05:00:12.039Z,63.16
2023-06-30T05:01:12.058Z,61.23
2023-06-30T05:02:12.007Z,60.75
2023-06-30T05:03:12.131Z,64.45
2023-06-30T05:04:11.998Z,60.59
2023-06-30T05:05:11.984Z,63.16
2023-06-30T05:06:12.660Z,60.26
2023-06-30T05:07:11.973Z,63.65
2023-06-30T05:08:11.959Z,64.13
2023-06-30T05:09:11.994Z,61.55
2023-06-30T05:10:11.942Z,59.30
2023-06-30T05:11:11.938Z,60.91
2023-06-30T05:12:11.930Z,63.16
2023-06-30T05:13:11.916Z,60.75
2023-06-30T05:14:11.930Z,60.75
2023-06-30T05:15:11.922Z,59.62
2023-06-30T05:16:11.925Z,59.94
2023-06-30T05:17:12.814Z,65.10
2023-06-30T05:18:11.971Z,60.75
2023-06-30T05:19:12.741Z,59.46
2023-06-30T05:20:11.883Z,62.36
2023-06-30T05:21:11.904Z,65.10
2023-06-30T05:22:11.851Z,58.65
2023-06-30T05:23:11.884Z,61.39
2023-06-30T05:24:11.837Z,59.46
2023-06-30T05:25:12.619Z,66.06
2023-06-30T05:26:11.809Z,63.81
2023-06-30T05:27:11.853Z,62.36
2023-06-30T05:28:11.834Z,59.78
2023-06-30T05:29:11.831Z,61.07
2023-06-30T05:30:11.851Z,64.29
2023-06-30T05:31:12.697Z,65.10
2023-06-30T05:32:11.785Z,62.20
2023-06-30T05:33:11.762Z,60.10
2023-06-30T05:34:11.762Z,62.36
2023-06-30T05:35:11.765Z,62.84
2023-06-30T05:36:11.735Z,63.97
2023-06-30T05:37:11.744Z,64.13
2023-06-30T05:38:11.717Z,63.00
2023-06-30T05:39:11.723Z,63.49
2023-06-30T05:40:11.722Z,62.04
2023-06-30T05:41:11.708Z,62.04
2023-06-30T05:42:11.688Z,64.13
2023-06-30T05:43:11.675Z,63.16
2023-06-30T05:44:11.685Z,62.36
2023-06-30T05:45:11.647Z,62.52
2023-06-30T05:46:11.725Z,59.78
2023-06-30T05:47:11.642Z,61.71
2023-06-30T05:48:11.641Z,60.10
2023-06-30T05:49:11.685Z,59.94
2023-06-30T05:50:11.626Z,61.71
2023-06-30T05:51:11.651Z,62.04
2023-06-30T05:52:11.599Z,60.75
2023-06-30T05:53:11.595Z,62.52
2023-06-30T05:54:11.585Z,66.23
2023-06-30T05:55:11.566Z,61.87
2023-06-30T05:56:12.250Z,62.52
2023-06-30T05:57:11.557Z,59.94
2023-06-30T05:58:11.551Z,59.62
2023-06-30T05:59:11.595Z,63.16
2023-06-30T06:00:11.538Z,64.29
2023-06-30T06:01:11.527Z,61.23
2023-06-30T06:02:11.525Z,62.20
2023-06-30T06:03:11.841Z,61.39
2023-06-30T06:04:11.862Z,60.26
2023-06-30T06:05:12.326Z,61.71
2023-06-30T06:06:11.490Z,59.14
2023-06-30T06:07:11.538Z,60.26
2023-06-30T06:08:11.479Z,61.23
2023-06-30T06:09:11.465Z,60.10
2023-06-30T06:10:11.460Z,62.68
2023-06-30T06:11:11.474Z,58.33
2023-06-30T06:12:11.448Z,60.10
2023-06-30T06:13:11.496Z,59.30
2023-06-30T06:14:11.492Z,61.71
2023-06-30T06:15:11.421Z,63.97
2023-06-30T06:16:12.231Z,61.71
2023-06-30T06:17:11.445Z,59.94
2023-06-30T06:18:11.443Z,58.65
2023-06-30T06:19:11.412Z,61.71
2023-06-30T06:20:11.407Z,63.16
2023-06-30T06:21:11.369Z,60.91
2023-06-30T06:22:11.385Z,60.10
2023-06-30T06:23:11.370Z,59.30
2023-06-30T06:24:12.257Z,60.75
2023-06-30T06:25:11.361Z,61.39
2023-06-30T06:26:12.251Z,59.62
2023-06-30T06:27:11.335Z,61.23
2023-06-30T06:28:11.314Z,58.17
2023-06-30T06:29:11.317Z,60.42
2023-06-30T06:30:11.293Z,61.07
2023-06-30T06:31:11.345Z,61.55
2023-06-30T06:32:11.290Z,62.20
2023-06-30T06:33:11.293Z,59.62
2023-06-30T06:34:11.268Z,61.07
2023-06-30T06:35:11.263Z,61.23
2023-06-30T06:36:11.254Z,60.10
2023-06-30T06:37:11.271Z,59.78
2023-06-30T06:38:11.253Z,60.59
2023-06-30T06:39:11.229Z,60.59
2023-06-30T06:40:11.231Z,60.42
2023-06-30T06:41:11.218Z,61.87
2023-06-30T06:42:11.197Z,59.94
2023-06-30T06:43:11.205Z,58.81
2023-06-30T06:44:11.751Z,59.62
2023-06-30T06:45:12.192Z,59.46
2023-06-30T06:46:11.203Z,60.42
2023-06-30T06:47:11.197Z,58.65
2023-06-30T06:48:11.155Z,58.49
2023-06-30T06:49:11.171Z,59.94
2023-06-30T06:50:11.141Z,56.88
2023-06-30T06:51:11.126Z,61.55
2023-06-30T06:52:11.128Z,57.85
2023-06-30T06:53:11.133Z,61.23
2023-06-30T06:54:11.109Z,61.39
2023-06-30T06:55:11.128Z,62.68
2023-06-30T06:56:11.110Z,57.36
2023-06-30T06:57:11.104Z,62.20
2023-06-30T06:58:11.088Z,62.20
2023-06-30T06:59:11.067Z,60.91
2023-06-30T07:00:11.062Z,60.59
2023-06-30T07:01:12.065Z,61.39
2023-06-30T07:02:11.239Z,59.46
2023-06-30T07:03:11.085Z,60.42
2023-06-30T07:04:11.058Z,61.71
2023-06-30T07:05:11.022Z,63.97
2023-06-30T07:06:11.002Z,59.62
2023-06-30T07:07:11.056Z,58.97
2023-06-30T07:08:11.001Z,60.26
2023-06-30T07:09:10.989Z,60.91
2023-06-30T07:10:11.001Z,60.59
2023-06-30T07:11:10.969Z,59.94
2023-06-30T07:12:10.965Z,57.69
2023-06-30T07:13:10.949Z,58.17
2023-06-30T07:14:10.962Z,60.26
2023-06-30T07:15:10.940Z,59.62
2023-06-30T07:16:10.948Z,60.10
2023-06-30T07:17:10.928Z,60.91
2023-06-30T07:18:11.107Z,63.33
2023-06-30T07:19:10.910Z,60.75
2023-06-30T07:20:10.915Z,59.14
2023-06-30T07:21:10.878Z,60.75
2023-06-30T07:22:10.884Z,61.07
2023-06-30T07:23:10.875Z,61.55
2023-06-30T07:24:10.869Z,62.04
2023-06-30T07:25:10.848Z,62.68
2023-06-30T07:26:10.862Z,62.04
2023-06-30T07:27:10.908Z,60.26
2023-06-30T07:28:10.849Z,58.81
2023-06-30T07:29:10.824Z,60.59
2023-06-30T07:30:10.827Z,60.26
2023-06-30T07:31:10.900Z,60.91
2023-06-30T07:32:11.701Z,58.97
2023-06-30T07:33:10.795Z,62.20
2023-06-30T07:34:10.790Z,61.23
2023-06-30T07:35:10.788Z,59.14
2023-06-30T07:36:10.780Z,60.26
2023-06-30T07:37:10.748Z,60.26
2023-06-30T07:38:10.754Z,58.65
2023-06-30T07:39:10.737Z,58.01
2023-06-30T07:40:16.429Z,60.26
2023-06-30T07:41:12.977Z,63.33
2023-06-30T07:42:10.719Z,60.59
2023-06-30T07:43:10.709Z,60.59
2023-06-30T07:44:10.709Z,60.75
2023-06-30T07:45:10.729Z,59.30
2023-06-30T07:46:10.709Z,59.94
2023-06-30T07:47:10.673Z,61.71
2023-06-30T07:48:10.815Z,59.46
2023-06-30T07:49:10.668Z,61.71
2023-06-30T07:50:10.646Z,62.84
2023-06-30T07:51:10.655Z,60.26
2023-06-30T07:52:10.637Z,59.78
2023-06-30T07:53:10.619Z,60.75
2023-06-30T07:54:10.624Z,63.81
2023-06-30T07:55:10.606Z,62.04
2023-06-30T07:56:10.607Z,64.13
2023-06-30T07:57:10.597Z,64.29
2023-06-30T07:58:10.587Z,60.42
2023-06-30T07:59:10.618Z,59.78
2023-06-30T08:00:10.567Z,60.75
2023-06-30T08:01:10.633Z,61.23
2023-06-30T08:02:10.548Z,59.46
2023-06-30T08:03:11.351Z,61.55
2023-06-30T08:04:10.729Z,58.65
2023-06-30T08:05:10.615Z,60.10
2023-06-30T08:06:10.629Z,58.33
2023-06-30T08:07:10.578Z,63.16
2023-06-30T08:08:10.515Z,60.26
2023-06-30T08:09:10.502Z,59.78
2023-06-30T08:10:10.499Z,60.42
2023-06-30T08:11:11.212Z,62.68
2023-06-30T08:12:10.483Z,60.26
2023-06-30T08:13:10.479Z,61.23
2023-06-30T08:14:10.510Z,60.91
2023-06-30T08:15:10.488Z,63.97
2023-06-30T08:16:10.534Z,58.97
2023-06-30T08:17:10.443Z,58.97
2023-06-30T08:18:11.102Z,59.14
2023-06-30T08:19:21.696Z,61.39
2023-06-30T08:20:11.484Z,60.59
2023-06-30T08:21:11.204Z,61.07
2023-06-30T08:22:10.398Z,61.55
2023-06-30T08:23:11.389Z,60.91
2023-06-30T08:24:10.378Z,59.94
2023-06-30T08:25:10.369Z,63.00
2023-06-30T08:26:10.382Z,61.71
2023-06-30T08:27:10.359Z,64.45
2023-06-30T08:28:10.811Z,66.71
2023-06-30T08:29:10.376Z,61.87
2023-06-30T08:30:10.372Z,60.26
2023-06-30T08:31:10.402Z,60.26
2023-06-30T08:32:10.318Z,61.71
2023-06-30T08:33:10.371Z,59.46
2023-06-30T08:34:10.286Z,58.65
2023-06-30T08:35:10.347Z,62.04
2023-06-30T08:36:10.323Z,61.39
2023-06-30T08:37:10.301Z,61.87
2023-06-30T08:38:10.284Z,64.78
2023-06-30T08:39:10.249Z,59.46
2023-06-30T08:40:10.244Z,60.59
2023-06-30T08:41:10.245Z,63.16
2023-06-30T08:42:10.260Z,59.14
2023-06-30T08:43:10.233Z,60.75
2023-06-30T08:44:10.251Z,63.65
2023-06-30T08:45:10.203Z,60.42
2023-06-30T08:46:10.758Z,61.23
2023-06-30T08:47:10.200Z,58.65
2023-06-30T08:48:10.267Z,63.00
2023-06-30T08:49:10.195Z,60.75
2023-06-30T08:50:10.191Z,62.04
2023-06-30T08:51:10.162Z,61.71
2023-06-30T08:52:10.157Z,60.10
2023-06-30T08:53:10.139Z,61.71
2023-06-30T08:54:11.744Z,60.75
2023-06-30T08:55:10.128Z,62.04
2023-06-30T08:56:10.118Z,63.49
2023-06-30T08:57:10.889Z,62.04
2023-06-30T08:58:21.040Z,63.81
2023-06-30T08:59:12.114Z,62.68
2023-06-30T09:00:10.093Z,62.84
2023-06-30T09:01:10.177Z,59.78
2023-06-30T09:02:10.140Z,58.33
2023-06-30T09:03:10.229Z,64.13
2023-06-30T09:04:10.281Z,61.23
2023-06-30T09:05:10.111Z,61.55
2023-06-30T09:06:10.083Z,61.07
2023-06-30T09:07:10.128Z,60.26
2023-06-30T09:08:10.032Z,62.04
2023-06-30T09:09:10.029Z,62.20
2023-06-30T09:10:10.059Z,60.59
2023-06-30T09:11:10.014Z,58.17
2023-06-30T09:12:10.017Z,59.94
2023-06-30T09:13:10.002Z,60.26
2023-06-30T09:14:10.016Z,61.07
2023-06-30T09:15:09.983Z,60.26
2023-06-30T09:16:10.022Z,59.30
2023-06-30T09:17:09.972Z,61.87
2023-06-30T09:18:09.987Z,61.23
2023-06-30T09:19:09.964Z,65.74
2023-06-30T09:20:09.934Z,64.78
2023-06-30T09:21:09.935Z,64.29
2023-06-30T09:22:53.908Z,58.65
2023-06-30T09:23:10.907Z,61.71
2023-06-30T09:24:09.915Z,62.20
2023-06-30T09:25:09.893Z,63.97
2023-06-30T09:26:09.961Z,65.10
2023-06-30T09:27:09.881Z,62.68
2023-06-30T09:28:09.902Z,64.45
2023-06-30T09:29:09.883Z,63.97
2023-06-30T09:30:10.747Z,63.97
2023-06-30T09:31:09.854Z,56.88
2023-06-30T09:32:10.556Z,61.87
2023-06-30T09:33:11.041Z,62.68
2023-06-30T09:34:09.949Z,59.62
2023-06-30T09:35:09.832Z,64.61
2023-06-30T09:36:09.808Z,61.55
2023-06-30T09:37:12.340Z,61.71
2023-06-30T09:38:10.828Z,64.29
2023-06-30T09:39:09.802Z,62.20
2023-06-30T09:40:09.784Z,64.29
2023-06-30T09:41:09.780Z,64.13
2023-06-30T09:42:09.762Z,65.74
2023-06-30T09:43:09.743Z,63.81
2023-06-30T09:44:09.753Z,62.68
2023-06-30T09:45:09.740Z,59.78
2023-06-30T09:46:10.300Z,60.75
2023-06-30T09:47:09.724Z,64.13
2023-06-30T09:48:09.698Z,61.39
2023-06-30T09:49:09.730Z,65.42
2023-06-30T09:50:09.736Z,67.03
2023-06-30T09:51:09.753Z,62.04
2023-06-30T09:52:09.671Z,62.36
2023-06-30T09:53:09.692Z,66.39
2023-06-30T09:54:09.690Z,65.42
2023-06-30T09:55:09.642Z,61.71
2023-06-30T09:56:09.742Z,66.23
2023-06-30T09:57:09.646Z,64.13
2023-06-30T09:58:09.622Z,66.23
2023-06-30T09:59:09.615Z,67.84
2023-06-30T10:00:18.441Z,66.39
2023-06-30T10:01:11.627Z,65.58
2023-06-30T10:02:09.604Z,63.49
2023-06-30T10:03:09.792Z,64.29
2023-06-30T10:04:09.582Z,63.16
2023-06-30T10:05:09.564Z,64.29
2023-06-30T10:06:09.579Z,63.65
2023-06-30T10:07:09.612Z,66.23
2023-06-30T10:08:09.611Z,66.39
2023-06-30T10:09:09.550Z,67.19
2023-06-30T10:10:09.531Z,59.62
2023-06-30T10:11:09.585Z,61.23
2023-06-30T10:12:09.541Z,64.13
2023-06-30T10:13:09.595Z,61.23
2023-06-30T10:14:09.588Z,65.42
2023-06-30T10:15:09.501Z,63.81
2023-06-30T10:16:09.507Z,62.20
2023-06-30T10:17:09.489Z,64.29
2023-06-30T10:18:10.295Z,62.52
2023-06-30T10:19:09.481Z,64.45
2023-06-30T10:20:09.462Z,67.84
2023-06-30T10:21:09.484Z,63.65
2023-06-30T10:22:09.474Z,65.74
2023-06-30T10:23:09.511Z,62.84
2023-06-30T10:24:10.294Z,63.81
2023-06-30T10:25:09.428Z,66.39
2023-06-30T10:26:09.439Z,68.32
2023-06-30T10:27:09.414Z,64.61
2023-06-30T10:28:10.361Z,67.03
2023-06-30T10:29:09.423Z,66.23
2023-06-30T10:30:09.386Z,67.19
2023-06-30T10:31:11.362Z,67.51
2023-06-30T10:32:09.385Z,65.10
2023-06-30T10:33:11.337Z,63.00
2023-06-30T10:34:09.355Z,62.68
2023-06-30T10:35:09.335Z,69.45
2023-06-30T10:36:09.341Z,68.00
2023-06-30T10:37:09.341Z,66.71
2023-06-30T10:38:09.837Z,67.51
2023-06-30T10:39:09.312Z,63.65
2023-06-30T10:40:09.851Z,67.03
2023-06-30T10:41:09.296Z,67.03
2023-06-30T10:42:09.312Z,69.93
2023-06-30T10:43:09.284Z,68.64
2023-06-30T10:44:09.295Z,65.58
2023-06-30T10:45:09.277Z,67.84
2023-06-30T10:46:12.475Z,66.71
2023-06-30T10:47:10.302Z,69.93
2023-06-30T10:48:09.345Z,66.23
2023-06-30T10:49:09.235Z,66.39
2023-06-30T10:50:09.232Z,67.68
2023-06-30T10:51:09.241Z,65.90
2023-06-30T10:52:09.265Z,63.16
2023-06-30T10:53:09.323Z,65.90
2023-06-30T10:54:09.193Z,60.59
2023-06-30T10:55:09.211Z,65.42
2023-06-30T10:56:09.172Z,66.55
2023-06-30T10:57:09.178Z,70.74
2023-06-30T10:58:09.928Z,66.39
2023-06-30T10:59:09.365Z,67.03
2023-06-30T11:00:10.873Z,68.48
2023-06-30T11:01:10.796Z,65.90
2023-06-30T11:02:09.129Z,68.96
2023-06-30T11:03:09.391Z,70.09
2023-06-30T11:04:09.310Z,67.51
2023-06-30T11:05:09.160Z,65.26
2023-06-30T21:21:29.961Z,58.81
2023-06-30T21:22:29.964Z,50.43
2023-06-30T21:23:29.952Z,53.98
2023-06-30T21:24:29.939Z,56.24
2023-06-30T21:25:29.930Z,58.17
2023-06-30T21:26:29.926Z,49.31
2023-06-30T21:27:29.928Z,56.40
2023-06-30T21:28:29.910Z,60.26
2023-06-30T21:29:29.916Z,55.43
2023-06-30T21:30:29.887Z,54.30
2023-06-30T21:31:29.893Z,55.91
2023-06-30T21:32:29.917Z,50.60
2023-06-30T21:33:29.881Z,57.20
2023-06-30T21:34:29.859Z,58.33
2023-06-30T21:35:29.859Z,44.47
2023-06-30T21:36:29.881Z,53.66
2023-06-30T21:37:30.740Z,58.49
2023-06-30T21:38:29.834Z,50.76
2023-06-30T21:39:29.836Z,45.44
2023-06-30T21:40:29.810Z,48.50
2023-06-30T21:41:29.795Z,50.43
2023-06-30T21:42:29.799Z,52.37
2023-06-30T21:43:29.795Z,50.76
2023-06-30T21:44:29.782Z,45.44
2023-06-30T21:45:29.774Z,47.53
2023-06-30T21:46:29.862Z,45.12
2023-06-30T21:47:29.775Z,56.88
2023-06-30T21:48:29.762Z,56.56
2023-06-30T21:49:29.744Z,47.21
2023-06-30T21:50:29.730Z,49.47
2023-06-30T21:51:29.721Z,46.57
2023-06-30T21:52:29.735Z,56.24
2023-06-30T21:53:30.238Z,47.86
2023-06-30T21:54:41.183Z,49.47
2023-06-30T21:55:31.815Z,56.40
2023-06-30T21:56:30.770Z,45.44
2023-06-30T21:57:30.822Z,40.28
2023-06-30T21:58:30.778Z,42.70
2023-06-30T21:59:30.737Z,52.37
2023-06-30T22:00:31.746Z,53.33
2023-06-30T22:01:39.837Z,55.91
2023-06-30T22:02:32.833Z,43.34
2023-06-30T22:03:31.533Z,44.63
2023-06-30T22:04:30.813Z,44.15
2023-06-30T22:05:30.717Z,53.98
2023-06-30T22:06:30.700Z,55.91
2023-06-30T22:07:30.699Z,55.27
2023-06-30T22:08:30.688Z,52.53
2023-06-30T22:09:30.688Z,45.76
2023-06-30T22:10:30.676Z,43.02
2023-06-30T22:11:30.657Z,54.79
2023-06-30T22:12:30.651Z,55.11
2023-06-30T22:13:31.336Z,45.92
2023-06-30T22:14:30.657Z,45.44
2023-06-30T22:15:30.633Z,42.54
2023-06-30T22:16:30.682Z,47.21
2023-06-30T22:17:30.776Z,42.86
2023-06-30T22:18:30.599Z,51.40
2023-06-30T22:19:30.605Z,51.40
2023-06-30T22:20:30.591Z,46.25
2023-06-30T22:21:30.596Z,47.70
2023-06-30T22:22:30.570Z,49.79
2023-06-30T22:23:30.583Z,45.60
2023-06-30T22:24:30.568Z,46.41
2023-06-30T22:25:30.568Z,51.72
2023-06-30T22:26:30.557Z,47.37
2023-06-30T22:27:30.544Z,48.66
2023-06-30T22:28:30.534Z,48.50
2023-06-30T22:29:30.582Z,52.85
2023-06-30T22:30:30.594Z,49.63
2023-06-30T22:31:30.517Z,48.66
2023-06-30T22:32:30.526Z,50.76
2023-06-30T22:33:30.494Z,45.92
2023-06-30T22:34:30.486Z,51.56
2023-06-30T22:35:30.482Z,48.18
2023-06-30T22:36:30.484Z,50.27
2023-06-30T22:37:30.474Z,49.79
2023-06-30T22:38:30.445Z,50.92
2023-06-30T22:39:30.456Z,48.02
2023-06-30T22:40:30.440Z,45.44
2023-06-30T22:41:30.426Z,47.70
2023-06-30T22:42:30.414Z,59.46
2023-06-30T22:43:30.415Z,55.75
2023-06-30T22:44:30.387Z,55.59
2023-06-30T22:45:30.409Z,58.81
2023-06-30T22:46:30.414Z,56.24
2023-06-30T22:47:31.314Z,53.98
2023-06-30T22:48:30.374Z,55.75
2023-06-30T22:49:30.353Z,44.96
2023-06-30T22:50:30.346Z,47.53
2023-06-30T22:51:30.370Z,48.50
2023-06-30T22:52:30.356Z,44.31
2023-06-30T22:53:30.343Z,53.17
2023-06-30T22:54:30.319Z,49.79
2023-06-30T22:55:30.312Z,51.72
2023-06-30T22:56:30.309Z,49.31
2023-06-30T22:57:30.300Z,50.27
2023-06-30T22:58:30.289Z,46.25
2023-06-30T22:59:30.288Z,51.56
2023-06-30T23:00:30.273Z,55.59
2023-06-30T23:01:30.283Z,53.17
2023-06-30T23:02:30.287Z,51.08
2023-06-30T23:03:30.389Z,48.50
2023-06-30T23:04:30.291Z,52.05
2023-06-30T23:05:30.230Z,51.88
2023-06-30T23:06:30.220Z,51.08
2023-06-30T23:07:30.203Z,48.18
2023-06-30T23:08:30.200Z,47.37
2023-06-30T23:09:30.219Z,45.92